Terminal Aerodrome Forecast
Issued by NWS Charleston, WV

Current Version | Previous Version | Graphics & Text | Print | Product List | Glossary On
Versions: 1 2 3 4 5 6 7 8 9 10 11 12 13 14 15 16 17 18 19 20 21 22 23 24 25 26 27
000
FTUS41 KRLX 150200 AAB
TAFBKW
TAF AMD
KBKW 150253Z 1503/1524 00000KT 4SM BR BKN015
      TEMPO 1503/1506 1SM BR SCT008
     FM150600 00000KT 4SM BR BKN008
     FM150800 00000KT 5SM BR BKN004
     FM151400 22004KT P6SM BKN015
     FM151600 24006KT P6SM BKN025=

USA.gov is the U.S. government's official web portal to all federal, state and local government web resources and services.